sensor_id;sensor_type;location;lat;lon;timestamp;P1;durP1;ratioP1;P2;durP2;ratioP2
20114;SDS011;10218;42.874;25.320;2023-12-14T00:02:02;4.53;;;3.00;;
20114;SDS011;10218;42.874;25.320;2023-12-14T00:04:29;4.90;;;3.20;;
20114;SDS011;10218;42.874;25.320;2023-12-14T00:06:56;5.23;;;2.80;;
20114;SDS011;10218;42.874;25.320;2023-12-14T00:09:23;3.90;;;2.87;;
20114;SDS011;10218;42.874;25.320;2023-12-14T00:11:50;5.37;;;3.07;;
20114;SDS011;10218;42.874;25.320;2023-12-14T00:14:18;7.53;;;3.60;;
20114;SDS011;10218;42.874;25.320;2023-12-14T00:16:45;5.47;;;3.50;;
20114;SDS011;10218;42.874;25.320;2023-12-14T00:19:12;6.73;;;4.03;;
20114;SDS011;10218;42.874;25.320;2023-12-14T00:21:39;7.27;;;3.70;;
20114;SDS011;10218;42.874;25.320;2023-12-14T00:24:06;5.67;;;3.53;;
20114;SDS011;10218;42.874;25.320;2023-12-14T00:26:33;7.10;;;4.30;;
20114;SDS011;10218;42.874;25.320;2023-12-14T00:29:00;6.87;;;4.03;;
20114;SDS011;10218;42.874;25.320;2023-12-14T00:31:28;6.17;;;3.13;;
20114;SDS011;10218;42.874;25.320;2023-12-14T00:33:55;7.30;;;4.33;;
20114;SDS011;10218;42.874;25.320;2023-12-14T00:36:22;6.07;;;3.87;;
20114;SDS011;10218;42.874;25.320;2023-12-14T00:38:49;6.77;;;4.40;;
20114;SDS011;10218;42.874;25.320;2023-12-14T00:41:17;8.63;;;4.83;;
20114;SDS011;10218;42.874;25.320;2023-12-14T00:43:44;9.63;;;4.30;;
20114;SDS011;10218;42.874;25.320;2023-12-14T00:46:11;8.40;;;4.70;;
20114;SDS011;10218;42.874;25.320;2023-12-14T00:48:38;6.20;;;3.30;;
20114;SDS011;10218;42.874;25.320;2023-12-14T00:51:05;3.13;;;2.30;;
20114;SDS011;10218;42.874;25.320;2023-12-14T00:53:32;4.47;;;2.80;;
20114;SDS011;10218;42.874;25.320;2023-12-14T00:56:00;5.30;;;3.37;;
20114;SDS011;10218;42.874;25.320;2023-12-14T00:58:27;7.97;;;3.93;;
20114;SDS011;10218;42.874;25.320;2023-12-14T01:00:54;5.03;;;3.33;;
20114;SDS011;10218;42.874;25.320;2023-12-14T01:03:21;5.90;;;3.80;;
20114;SDS011;10218;42.874;25.320;2023-12-14T01:05:49;7.17;;;3.20;;
20114;SDS011;10218;42.874;25.320;2023-12-14T01:08:16;6.80;;;3.67;;
20114;SDS011;10218;42.874;25.320;2023-12-14T01:10:43;5.07;;;3.20;;
20114;SDS011;10218;42.874;25.320;2023-12-14T01:13:10;3.83;;;2.73;;
20114;SDS011;10218;42.874;25.320;2023-12-14T01:15:38;4.20;;;2.97;;
20114;SDS011;10218;42.874;25.320;2023-12-14T01:18:05;3.50;;;2.47;;
20114;SDS011;10218;42.874;25.320;2023-12-14T01:20:32;4.40;;;2.57;;
20114;SDS011;10218;42.874;25.320;2023-12-14T01:22:59;3.40;;;2.40;;
20114;SDS011;10218;42.874;25.320;2023-12-14T01:25:27;4.50;;;2.77;;
20114;SDS011;10218;42.874;25.320;2023-12-14T01:27:54;5.17;;;2.70;;
20114;SDS011;10218;42.874;25.320;2023-12-14T01:30:21;7.77;;;3.00;;
20114;SDS011;10218;42.874;25.320;2023-12-14T01:32:48;5.63;;;2.83;;
20114;SDS011;10218;42.874;25.320;2023-12-14T01:35:15;5.57;;;2.97;;
20114;SDS011;10218;42.874;25.320;2023-12-14T01:37:42;4.83;;;2.67;;
20114;SDS011;10218;42.874;25.320;2023-12-14T01:40:10;6.50;;;3.30;;
20114;SDS011;10218;42.874;25.320;2023-12-14T01:42:37;5.47;;;3.10;;
20114;SDS011;10218;42.874;25.320;2023-12-14T01:45:04;4.60;;;3.03;;
20114;SDS011;10218;42.874;25.320;2023-12-14T01:47:32;5.63;;;3.10;;
20114;SDS011;10218;42.874;25.320;2023-12-14T01:49:59;5.73;;;3.10;;
20114;SDS011;10218;42.874;25.320;2023-12-14T01:52:26;4.40;;;3.10;;
20114;SDS011;10218;42.874;25.320;2023-12-14T01:54:54;5.27;;;3.07;;
20114;SDS011;10218;42.874;25.320;2023-12-14T01:57:22;9.07;;;5.70;;
20114;SDS011;10218;42.874;25.320;2023-12-14T01:59:49;5.83;;;3.90;;
20114;SDS011;10218;42.874;25.320;2023-12-14T02:02:16;6.97;;;4.57;;
20114;SDS011;10218;42.874;25.320;2023-12-14T02:04:43;6.30;;;3.80;;
20114;SDS011;10218;42.874;25.320;2023-12-14T02:07:10;9.13;;;4.70;;
20114;SDS011;10218;42.874;25.320;2023-12-14T02:09:37;7.80;;;5.00;;
20114;SDS011;10218;42.874;25.320;2023-12-14T02:12:05;7.83;;;4.67;;
20114;SDS011;10218;42.874;25.320;2023-12-14T02:14:32;8.67;;;5.47;;
20114;SDS011;10218;42.874;25.320;2023-12-14T02:16:59;9.43;;;5.70;;
20114;SDS011;10218;42.874;25.320;2023-12-14T02:19:27;9.57;;;5.47;;
20114;SDS011;10218;42.874;25.320;2023-12-14T02:21:54;8.33;;;5.30;;
20114;SDS011;10218;42.874;25.320;2023-12-14T02:24:21;7.50;;;4.30;;
20114;SDS011;10218;42.874;25.320;2023-12-14T02:26:48;8.00;;;4.97;;
20114;SDS011;10218;42.874;25.320;2023-12-14T02:29:15;9.50;;;5.20;;
20114;SDS011;10218;42.874;25.320;2023-12-14T02:31:43;7.73;;;5.17;;
20114;SDS011;10218;42.874;25.320;2023-12-14T02:34:10;9.57;;;4.53;;
20114;SDS011;10218;42.874;25.320;2023-12-14T02:36:37;8.53;;;5.00;;
20114;SDS011;10218;42.874;25.320;2023-12-14T02:39:04;15.03;;;7.30;;
20114;SDS011;10218;42.874;25.320;2023-12-14T02:41:31;11.37;;;6.27;;
20114;SDS011;10218;42.874;25.320;2023-12-14T02:43:58;8.10;;;4.83;;
20114;SDS011;10218;42.874;25.320;2023-12-14T02:46:28;7.40;;;4.27;;
20114;SDS011;10218;42.874;25.320;2023-12-14T02:48:55;7.43;;;4.30;;
20114;SDS011;10218;42.874;25.320;2023-12-14T02:51:23;5.60;;;3.73;;
20114;SDS011;10218;42.874;25.320;2023-12-14T02:53:50;7.17;;;3.70;;
20114;SDS011;10218;42.874;25.320;2023-12-14T02:56:17;5.13;;;3.57;;
20114;SDS011;10218;42.874;25.320;2023-12-14T02:58:44;6.47;;;3.20;;
20114;SDS011;10218;42.874;25.320;2023-12-14T03:01:15;6.23;;;3.90;;
20114;SDS011;10218;42.874;25.320;2023-12-14T03:03:46;9.43;;;4.20;;
20114;SDS011;10218;42.874;25.320;2023-12-14T03:06:13;8.97;;;3.70;;
20114;SDS011;10218;42.874;25.320;2023-12-14T03:08:40;6.47;;;3.90;;
20114;SDS011;10218;42.874;25.320;2023-12-14T03:11:08;5.07;;;2.87;;
20114;SDS011;10218;42.874;25.320;2023-12-14T03:13:35;5.53;;;3.23;;
20114;SDS011;10218;42.874;25.320;2023-12-14T03:16:02;4.20;;;2.93;;
20114;SDS011;10218;42.874;25.320;2023-12-14T03:18:30;4.10;;;2.50;;
20114;SDS011;10218;42.874;25.320;2023-12-14T03:20:57;3.80;;;2.43;;
20114;SDS011;10218;42.874;25.320;2023-12-14T03:23:24;3.37;;;2.50;;
20114;SDS011;10218;42.874;25.320;2023-12-14T03:25:51;4.50;;;2.40;;
20114;SDS011;10218;42.874;25.320;2023-12-14T03:28:18;4.30;;;2.57;;
20114;SDS011;10218;42.874;25.320;2023-12-14T03:30:45;4.03;;;2.77;;
20114;SDS011;10218;42.874;25.320;2023-12-14T03:33:12;4.20;;;3.20;;
20114;SDS011;10218;42.874;25.320;2023-12-14T03:35:39;9.73;;;3.37;;
20114;SDS011;10218;42.874;25.320;2023-12-14T03:38:08;7.27;;;3.50;;
20114;SDS011;10218;42.874;25.320;2023-12-14T03:40:36;7.27;;;5.10;;
20114;SDS011;10218;42.874;25.320;2023-12-14T03:43:02;9.53;;;5.13;;
20114;SDS011;10218;42.874;25.320;2023-12-14T03:45:30;8.07;;;5.33;;
20114;SDS011;10218;42.874;25.320;2023-12-14T03:47:58;17.07;;;7.60;;
20114;SDS011;10218;42.874;25.320;2023-12-14T03:50:25;10.30;;;6.73;;
20114;SDS011;10218;42.874;25.320;2023-12-14T03:52:52;11.80;;;6.97;;
20114;SDS011;10218;42.874;25.320;2023-12-14T03:55:19;9.90;;;6.87;;
20114;SDS011;10218;42.874;25.320;2023-12-14T03:57:46;14.33;;;7.13;;
20114;SDS011;10218;42.874;25.320;2023-12-14T04:00:13;13.27;;;5.93;;
20114;SDS011;10218;42.874;25.320;2023-12-14T04:02:41;7.17;;;4.90;;
20114;SDS011;10218;42.874;25.320;2023-12-14T04:05:08;5.73;;;3.30;;
20114;SDS011;10218;42.874;25.320;2023-12-14T04:07:38;5.47;;;3.53;;
20114;SDS011;10218;42.874;25.320;2023-12-14T04:10:09;4.80;;;3.70;;
20114;SDS011;10218;42.874;25.320;2023-12-14T04:12:37;8.10;;;3.77;;
20114;SDS011;10218;42.874;25.320;2023-12-14T04:15:06;6.13;;;3.60;;
20114;SDS011;10218;42.874;25.320;2023-12-14T04:17:34;3.63;;;2.70;;
20114;SDS011;10218;42.874;25.320;2023-12-14T04:20:02;3.77;;;2.80;;
20114;SDS011;10218;42.874;25.320;2023-12-14T04:22:32;3.80;;;2.57;;
20114;SDS011;10218;42.874;25.320;2023-12-14T04:25:00;4.23;;;2.87;;
20114;SDS011;10218;42.874;25.320;2023-12-14T04:27:27;3.80;;;2.70;;
20114;SDS011;10218;42.874;25.320;2023-12-14T04:29:56;6.73;;;4.67;;
20114;SDS011;10218;42.874;25.320;2023-12-14T04:32:23;4.97;;;3.40;;
20114;SDS011;10218;42.874;25.320;2023-12-14T04:34:50;12.73;;;9.07;;
20114;SDS011;10218;42.874;25.320;2023-12-14T04:37:18;20.83;;;14.50;;
20114;SDS011;10218;42.874;25.320;2023-12-14T04:39:45;6.07;;;3.37;;
20114;SDS011;10218;42.874;25.320;2023-12-14T04:42:12;7.73;;;5.23;;
20114;SDS011;10218;42.874;25.320;2023-12-14T04:44:39;11.93;;;9.03;;
20114;SDS011;10218;42.874;25.320;2023-12-14T04:47:07;4.53;;;2.90;;
20114;SDS011;10218;42.874;25.320;2023-12-14T04:49:35;4.10;;;2.90;;
20114;SDS011;10218;42.874;25.320;2023-12-14T04:52:02;4.03;;;2.93;;
20114;SDS011;10218;42.874;25.320;2023-12-14T04:54:29;4.50;;;2.80;;
20114;SDS011;10218;42.874;25.320;2023-12-14T04:56:56;5.47;;;2.70;;
20114;SDS011;10218;42.874;25.320;2023-12-14T04:59:23;4.07;;;2.67;;
20114;SDS011;10218;42.874;25.320;2023-12-14T05:01:50;5.13;;;3.10;;
20114;SDS011;10218;42.874;25.320;2023-12-14T05:04:17;4.97;;;2.67;;
20114;SDS011;10218;42.874;25.320;2023-12-14T05:06:44;3.40;;;2.50;;
20114;SDS011;10218;42.874;25.320;2023-12-14T05:09:12;4.33;;;2.83;;
20114;SDS011;10218;42.874;25.320;2023-12-14T05:11:39;3.03;;;2.43;;
20114;SDS011;10218;42.874;25.320;2023-12-14T05:14:06;5.63;;;2.60;;
20114;SDS011;10218;42.874;25.320;2023-12-14T05:16:34;5.27;;;2.47;;
20114;SDS011;10218;42.874;25.320;2023-12-14T05:19:01;3.17;;;2.47;;
20114;SDS011;10218;42.874;25.320;2023-12-14T05:21:28;6.43;;;4.40;;
20114;SDS011;10218;42.874;25.320;2023-12-14T05:23:55;6.03;;;2.53;;
20114;SDS011;10218;42.874;25.320;2023-12-14T05:26:22;5.80;;;2.77;;
20114;SDS011;10218;42.874;25.320;2023-12-14T05:28:49;5.83;;;2.60;;
20114;SDS011;10218;42.874;25.320;2023-12-14T05:31:17;4.03;;;2.60;;
20114;SDS011;10218;42.874;25.320;2023-12-14T05:33:45;4.10;;;3.07;;
20114;SDS011;10218;42.874;25.320;2023-12-14T05:36:14;3.10;;;2.50;;
20114;SDS011;10218;42.874;25.320;2023-12-14T05:38:42;4.50;;;3.60;;
20114;SDS011;10218;42.874;25.320;2023-12-14T05:41:09;13.87;;;8.93;;
20114;SDS011;10218;42.874;25.320;2023-12-14T05:43:36;9.17;;;5.57;;
20114;SDS011;10218;42.874;25.320;2023-12-14T05:46:04;6.30;;;4.27;;
20114;SDS011;10218;42.874;25.320;2023-12-14T05:48:31;5.83;;;3.70;;
20114;SDS011;10218;42.874;25.320;2023-12-14T05:50:59;6.47;;;4.07;;
20114;SDS011;10218;42.874;25.320;2023-12-14T05:53:27;8.37;;;3.77;;
20114;SDS011;10218;42.874;25.320;2023-12-14T05:55:54;7.77;;;4.90;;
20114;SDS011;10218;42.874;25.320;2023-12-14T05:58:21;7.73;;;4.53;;
20114;SDS011;10218;42.874;25.320;2023-12-14T06:00:48;12.23;;;4.20;;
20114;SDS011;10218;42.874;25.320;2023-12-14T06:03:16;5.67;;;3.57;;
20114;SDS011;10218;42.874;25.320;2023-12-14T06:05:43;5.73;;;3.50;;
20114;SDS011;10218;42.874;25.320;2023-12-14T06:08:10;4.80;;;2.77;;
20114;SDS011;10218;42.874;25.320;2023-12-14T06:10:38;5.30;;;3.30;;
20114;SDS011;10218;42.874;25.320;2023-12-14T06:13:05;4.60;;;3.20;;
20114;SDS011;10218;42.874;25.320;2023-12-14T06:15:32;5.53;;;3.33;;
20114;SDS011;10218;42.874;25.320;2023-12-14T06:17:59;5.23;;;3.30;;
20114;SDS011;10218;42.874;25.320;2023-12-14T06:20:26;6.50;;;4.17;;
20114;SDS011;10218;42.874;25.320;2023-12-14T06:22:54;9.57;;;4.87;;
20114;SDS011;10218;42.874;25.320;2023-12-14T06:25:21;9.70;;;5.27;;
20114;SDS011;10218;42.874;25.320;2023-12-14T06:27:48;10.53;;;5.10;;
20114;SDS011;10218;42.874;25.320;2023-12-14T06:30:16;9.47;;;4.37;;
20114;SDS011;10218;42.874;25.320;2023-12-14T06:32:43;9.23;;;5.07;;
20114;SDS011;10218;42.874;25.320;2023-12-14T06:35:10;8.83;;;4.13;;
20114;SDS011;10218;42.874;25.320;2023-12-14T06:37:37;5.97;;;4.13;;
20114;SDS011;10218;42.874;25.320;2023-12-14T06:40:05;6.37;;;3.83;;
20114;SDS011;10218;42.874;25.320;2023-12-14T06:42:35;20.07;;;12.43;;
20114;SDS011;10218;42.874;25.320;2023-12-14T06:45:02;9.33;;;6.70;;
20114;SDS011;10218;42.874;25.320;2023-12-14T06:47:30;11.13;;;4.10;;
20114;SDS011;10218;42.874;25.320;2023-12-14T06:49:57;9.40;;;5.10;;
20114;SDS011;10218;42.874;25.320;2023-12-14T06:52:24;13.27;;;6.53;;
20114;SDS011;10218;42.874;25.320;2023-12-14T06:54:51;14.67;;;8.60;;
20114;SDS011;10218;42.874;25.320;2023-12-14T06:57:19;11.67;;;6.40;;
20114;SDS011;10218;42.874;25.320;2023-12-14T06:59:46;12.70;;;6.97;;
20114;SDS011;10218;42.874;25.320;2023-12-14T07:02:13;11.40;;;7.20;;
20114;SDS011;10218;42.874;25.320;2023-12-14T07:04:40;15.03;;;7.33;;
20114;SDS011;10218;42.874;25.320;2023-12-14T07:07:07;15.63;;;7.67;;
20114;SDS011;10218;42.874;25.320;2023-12-14T07:09:35;7.90;;;4.20;;
20114;SDS011;10218;42.874;25.320;2023-12-14T07:12:02;10.20;;;5.40;;
20114;SDS011;10218;42.874;25.320;2023-12-14T07:14:29;7.57;;;3.10;;
20114;SDS011;10218;42.874;25.320;2023-12-14T07:16:56;7.87;;;4.30;;
20114;SDS011;10218;42.874;25.320;2023-12-14T07:19:23;10.43;;;5.73;;
20114;SDS011;10218;42.874;25.320;2023-12-14T07:21:50;19.87;;;10.77;;
20114;SDS011;10218;42.874;25.320;2023-12-14T07:24:18;12.07;;;7.13;;
20114;SDS011;10218;42.874;25.320;2023-12-14T07:26:45;16.20;;;8.73;;
20114;SDS011;10218;42.874;25.320;2023-12-14T07:29:12;5.70;;;4.27;;
20114;SDS011;10218;42.874;25.320;2023-12-14T07:31:39;5.80;;;3.50;;
20114;SDS011;10218;42.874;25.320;2023-12-14T07:34:06;10.33;;;4.97;;
20114;SDS011;10218;42.874;25.320;2023-12-14T07:36:33;16.37;;;4.47;;
20114;SDS011;10218;42.874;25.320;2023-12-14T07:39:01;12.30;;;6.37;;
20114;SDS011;10218;42.874;25.320;2023-12-14T07:41:28;9.27;;;5.67;;
20114;SDS011;10218;42.874;25.320;2023-12-14T07:43:56;7.30;;;5.33;;
20114;SDS011;10218;42.874;25.320;2023-12-14T07:46:25;9.40;;;6.40;;
20114;SDS011;10218;42.874;25.320;2023-12-14T07:48:52;10.60;;;6.40;;
20114;SDS011;10218;42.874;25.320;2023-12-14T07:51:19;13.80;;;8.93;;
20114;SDS011;10218;42.874;25.320;2023-12-14T07:53:47;10.53;;;7.27;;
20114;SDS011;10218;42.874;25.320;2023-12-14T07:56:14;12.13;;;5.77;;
20114;SDS011;10218;42.874;25.320;2023-12-14T07:58:41;9.50;;;6.47;;
20114;SDS011;10218;42.874;25.320;2023-12-14T08:01:09;15.80;;;8.70;;
20114;SDS011;10218;42.874;25.320;2023-12-14T08:03:36;10.00;;;4.33;;
20114;SDS011;10218;42.874;25.320;2023-12-14T08:06:04;19.77;;;9.80;;
20114;SDS011;10218;42.874;25.320;2023-12-14T08:08:31;14.40;;;7.50;;
20114;SDS011;10218;42.874;25.320;2023-12-14T08:10:58;9.97;;;6.20;;
20114;SDS011;10218;42.874;25.320;2023-12-14T08:13:26;11.70;;;6.20;;
20114;SDS011;10218;42.874;25.320;2023-12-14T08:15:53;10.43;;;6.30;;
20114;SDS011;10218;42.874;25.320;2023-12-14T08:18:21;12.93;;;6.57;;
20114;SDS011;10218;42.874;25.320;2023-12-14T08:20:48;9.83;;;6.13;;
20114;SDS011;10218;42.874;25.320;2023-12-14T08:23:15;21.03;;;6.60;;
20114;SDS011;10218;42.874;25.320;2023-12-14T08:25:42;11.50;;;6.50;;
20114;SDS011;10218;42.874;25.320;2023-12-14T08:28:09;9.77;;;5.97;;
20114;SDS011;10218;42.874;25.320;2023-12-14T08:30:36;12.07;;;5.70;;
20114;SDS011;10218;42.874;25.320;2023-12-14T08:33:05;8.83;;;5.63;;
20114;SDS011;10218;42.874;25.320;2023-12-14T08:35:32;8.53;;;5.43;;
20114;SDS011;10218;42.874;25.320;2023-12-14T08:37:59;11.80;;;6.00;;
20114;SDS011;10218;42.874;25.320;2023-12-14T08:40:27;10.90;;;5.60;;
20114;SDS011;10218;42.874;25.320;2023-12-14T08:42:55;11.17;;;5.63;;
20114;SDS011;10218;42.874;25.320;2023-12-14T08:45:22;11.40;;;5.80;;
20114;SDS011;10218;42.874;25.320;2023-12-14T08:47:50;11.90;;;7.10;;
20114;SDS011;10218;42.874;25.320;2023-12-14T08:50:17;10.67;;;6.67;;
20114;SDS011;10218;42.874;25.320;2023-12-14T08:52:44;12.17;;;5.67;;
20114;SDS011;10218;42.874;25.320;2023-12-14T08:55:12;12.40;;;6.63;;
20114;SDS011;10218;42.874;25.320;2023-12-14T08:57:39;13.67;;;6.93;;
20114;SDS011;10218;42.874;25.320;2023-12-14T09:00:06;10.43;;;6.87;;
20114;SDS011;10218;42.874;25.320;2023-12-14T09:02:35;12.43;;;7.63;;
20114;SDS011;10218;42.874;25.320;2023-12-14T09:05:02;14.03;;;7.90;;
20114;SDS011;10218;42.874;25.320;2023-12-14T09:07:31;19.27;;;9.07;;
20114;SDS011;10218;42.874;25.320;2023-12-14T09:09:58;21.80;;;10.80;;
20114;SDS011;10218;42.874;25.320;2023-12-14T09:12:25;14.90;;;8.27;;
20114;SDS011;10218;42.874;25.320;2023-12-14T09:14:52;12.27;;;8.20;;
20114;SDS011;10218;42.874;25.320;2023-12-14T09:17:19;15.53;;;9.17;;
20114;SDS011;10218;42.874;25.320;2023-12-14T09:19:46;15.57;;;8.13;;
20114;SDS011;10218;42.874;25.320;2023-12-14T09:22:13;18.73;;;10.03;;
20114;SDS011;10218;42.874;25.320;2023-12-14T09:24:40;14.70;;;8.30;;
20114;SDS011;10218;42.874;25.320;2023-12-14T09:27:07;16.23;;;8.63;;
20114;SDS011;10218;42.874;25.320;2023-12-14T09:29:34;15.37;;;8.90;;
20114;SDS011;10218;42.874;25.320;2023-12-14T09:32:02;13.93;;;8.33;;
20114;SDS011;10218;42.874;25.320;2023-12-14T09:34:30;20.23;;;8.93;;
20114;SDS011;10218;42.874;25.320;2023-12-14T09:36:57;19.03;;;10.33;;
20114;SDS011;10218;42.874;25.320;2023-12-14T09:39:24;15.33;;;9.20;;
20114;SDS011;10218;42.874;25.320;2023-12-14T09:41:51;13.43;;;8.83;;
20114;SDS011;10218;42.874;25.320;2023-12-14T09:44:18;20.07;;;10.80;;
20114;SDS011;10218;42.874;25.320;2023-12-14T09:46:46;15.50;;;9.53;;
20114;SDS011;10218;42.874;25.320;2023-12-14T09:49:16;17.67;;;10.60;;
20114;SDS011;10218;42.874;25.320;2023-12-14T09:51:45;18.27;;;9.87;;
20114;SDS011;10218;42.874;25.320;2023-12-14T09:54:12;15.77;;;10.60;;
20114;SDS011;10218;42.874;25.320;2023-12-14T09:56:45;19.90;;;12.20;;
20114;SDS011;10218;42.874;25.320;2023-12-14T09:59:14;17.83;;;11.70;;
20114;SDS011;10218;42.874;25.320;2023-12-14T10:01:42;21.07;;;12.77;;
20114;SDS011;10218;42.874;25.320;2023-12-14T10:04:14;17.30;;;10.03;;
20114;SDS011;10218;42.874;25.320;2023-12-14T10:06:44;16.47;;;10.67;;
20114;SDS011;10218;42.874;25.320;2023-12-14T10:09:12;16.90;;;10.00;;
20114;SDS011;10218;42.874;25.320;2023-12-14T10:11:44;15.20;;;9.90;;
20114;SDS011;10218;42.874;25.320;2023-12-14T10:14:18;16.90;;;11.90;;
20114;SDS011;10218;42.874;25.320;2023-12-14T10:16:48;18.03;;;10.10;;
20114;SDS011;10218;42.874;25.320;2023-12-14T10:19:16;14.40;;;10.10;;
20114;SDS011;10218;42.874;25.320;2023-12-14T10:21:48;17.83;;;10.23;;
20114;SDS011;10218;42.874;25.320;2023-12-14T10:24:17;15.03;;;10.80;;
20114;SDS011;10218;42.874;25.320;2023-12-14T10:26:45;19.23;;;10.30;;
20114;SDS011;10218;42.874;25.320;2023-12-14T10:29:13;14.10;;;10.70;;
20114;SDS011;10218;42.874;25.320;2023-12-14T10:31:42;16.37;;;10.67;;
20114;SDS011;10218;42.874;25.320;2023-12-14T10:34:10;17.27;;;11.87;;
20114;SDS011;10218;42.874;25.320;2023-12-14T10:36:39;25.03;;;15.20;;
20114;SDS011;10218;42.874;25.320;2023-12-14T10:39:09;22.63;;;14.83;;
20114;SDS011;10218;42.874;25.320;2023-12-14T10:41:42;15.33;;;10.63;;
20114;SDS011;10218;42.874;25.320;2023-12-14T10:44:16;14.33;;;9.70;;
20114;SDS011;10218;42.874;25.320;2023-12-14T10:46:46;17.30;;;11.17;;
20114;SDS011;10218;42.874;25.320;2023-12-14T10:49:15;16.07;;;10.60;;
20114;SDS011;10218;42.874;25.320;2023-12-14T10:51:42;21.50;;;11.57;;
20114;SDS011;10218;42.874;25.320;2023-12-14T10:54:10;16.97;;;10.87;;
20114;SDS011;10218;42.874;25.320;2023-12-14T10:56:37;15.93;;;10.33;;
20114;SDS011;10218;42.874;25.320;2023-12-14T10:59:05;17.57;;;11.17;;
20114;SDS011;10218;42.874;25.320;2023-12-14T11:01:33;15.57;;;10.23;;
20114;SDS011;10218;42.874;25.320;2023-12-14T11:04:03;16.27;;;11.63;;
20114;SDS011;10218;42.874;25.320;2023-12-14T11:06:36;15.30;;;10.90;;
20114;SDS011;10218;42.874;25.320;2023-12-14T11:09:05;15.70;;;10.73;;
20114;SDS011;10218;42.874;25.320;2023-12-14T11:14:20;16.47;;;11.17;;
20114;SDS011;10218;42.874;25.320;2023-12-14T11:16:48;21.07;;;12.50;;
20114;SDS011;10218;42.874;25.320;2023-12-14T11:24:36;16.27;;;9.40;;
20114;SDS011;10218;42.874;25.320;2023-12-14T11:27:04;13.17;;;9.40;;
20114;SDS011;10218;42.874;25.320;2023-12-14T11:29:36;13.73;;;8.00;;
20114;SDS011;10218;42.874;25.320;2023-12-14T11:32:10;10.30;;;8.03;;
20114;SDS011;10218;42.874;25.320;2023-12-14T11:34:38;14.70;;;8.27;;
20114;SDS011;10218;42.874;25.320;2023-12-14T11:37:06;16.40;;;8.47;;
20114;SDS011;10218;42.874;25.320;2023-12-14T11:39:34;11.27;;;8.60;;
20114;SDS011;10218;42.874;25.320;2023-12-14T11:42:03;17.27;;;8.87;;
20114;SDS011;10218;42.874;25.320;2023-12-14T11:44:31;13.93;;;9.00;;
20114;SDS011;10218;42.874;25.320;2023-12-14T11:46:59;14.83;;;8.53;;
20114;SDS011;10218;42.874;25.320;2023-12-14T11:49:26;12.53;;;9.07;;
20114;SDS011;10218;42.874;25.320;2023-12-14T11:51:56;12.33;;;8.90;;
20114;SDS011;10218;42.874;25.320;2023-12-14T11:54:23;13.17;;;9.57;;
20114;SDS011;10218;42.874;25.320;2023-12-14T11:56:51;11.47;;;7.90;;
20114;SDS011;10218;42.874;25.320;2023-12-14T11:59:18;12.07;;;8.10;;
20114;SDS011;10218;42.874;25.320;2023-12-14T12:04:24;13.17;;;8.37;;
20114;SDS011;10218;42.874;25.320;2023-12-14T12:09:47;12.60;;;9.27;;
20114;SDS011;10218;42.874;25.320;2023-12-14T12:12:14;12.07;;;8.17;;
20114;SDS011;10218;42.874;25.320;2023-12-14T12:14:41;12.13;;;7.87;;
20114;SDS011;10218;42.874;25.320;2023-12-14T12:17:09;12.77;;;7.60;;
20114;SDS011;10218;42.874;25.320;2023-12-14T12:19:37;12.77;;;9.20;;
20114;SDS011;10218;42.874;25.320;2023-12-14T12:22:04;16.80;;;9.93;;
20114;SDS011;10218;42.874;25.320;2023-12-14T12:24:31;17.90;;;9.83;;
20114;SDS011;10218;42.874;25.320;2023-12-14T12:26:59;16.20;;;9.53;;
20114;SDS011;10218;42.874;25.320;2023-12-14T12:29:27;19.40;;;9.80;;
20114;SDS011;10218;42.874;25.320;2023-12-14T12:31:54;14.37;;;10.03;;
20114;SDS011;10218;42.874;25.320;2023-12-14T12:34:21;14.40;;;8.23;;
20114;SDS011;10218;42.874;25.320;2023-12-14T12:36:49;13.63;;;9.17;;
20114;SDS011;10218;42.874;25.320;2023-12-14T12:39:16;16.97;;;9.00;;
20114;SDS011;10218;42.874;25.320;2023-12-14T12:41:43;13.17;;;9.70;;
20114;SDS011;10218;42.874;25.320;2023-12-14T12:44:10;11.83;;;8.97;;
20114;SDS011;10218;42.874;25.320;2023-12-14T12:46:38;13.37;;;9.50;;
20114;SDS011;10218;42.874;25.320;2023-12-14T12:49:05;13.50;;;8.43;;
20114;SDS011;10218;42.874;25.320;2023-12-14T12:51:32;12.40;;;8.83;;
20114;SDS011;10218;42.874;25.320;2023-12-14T12:53:59;12.57;;;9.10;;
20114;SDS011;10218;42.874;25.320;2023-12-14T12:56:32;10.93;;;8.27;;
20114;SDS011;10218;42.874;25.320;2023-12-14T12:58:59;13.47;;;9.53;;
20114;SDS011;10218;42.874;25.320;2023-12-14T13:01:26;16.97;;;10.07;;
20114;SDS011;10218;42.874;25.320;2023-12-14T13:03:53;14.47;;;9.00;;
20114;SDS011;10218;42.874;25.320;2023-12-14T13:06:24;13.93;;;8.43;;
20114;SDS011;10218;42.874;25.320;2023-12-14T13:08:54;13.97;;;8.60;;
20114;SDS011;10218;42.874;25.320;2023-12-14T13:11:21;13.37;;;8.47;;
20114;SDS011;10218;42.874;25.320;2023-12-14T13:13:49;14.47;;;8.27;;
20114;SDS011;10218;42.874;25.320;2023-12-14T13:16:16;14.70;;;8.60;;
20114;SDS011;10218;42.874;25.320;2023-12-14T13:18:43;13.27;;;8.47;;
20114;SDS011;10218;42.874;25.320;2023-12-14T13:21:12;14.17;;;8.33;;
20114;SDS011;10218;42.874;25.320;2023-12-14T13:23:40;15.93;;;8.30;;
20114;SDS011;10218;42.874;25.320;2023-12-14T13:26:07;14.40;;;7.90;;
20114;SDS011;10218;42.874;25.320;2023-12-14T13:28:35;13.27;;;8.90;;
20114;SDS011;10218;42.874;25.320;2023-12-14T13:31:02;11.17;;;8.07;;
20114;SDS011;10218;42.874;25.320;2023-12-14T13:33:29;13.13;;;9.00;;
20114;SDS011;10218;42.874;25.320;2023-12-14T13:35:57;12.97;;;8.77;;
20114;SDS011;10218;42.874;25.320;2023-12-14T13:38:25;12.73;;;9.03;;
20114;SDS011;10218;42.874;25.320;2023-12-14T13:40:52;14.60;;;9.07;;
20114;SDS011;10218;42.874;25.320;2023-12-14T13:43:19;13.93;;;8.53;;
20114;SDS011;10218;42.874;25.320;2023-12-14T13:45:47;14.37;;;9.83;;
20114;SDS011;10218;42.874;25.320;2023-12-14T13:48:16;23.90;;;12.50;;
20114;SDS011;10218;42.874;25.320;2023-12-14T13:50:47;16.00;;;10.20;;
20114;SDS011;10218;42.874;25.320;2023-12-14T13:53:14;12.60;;;8.63;;
20114;SDS011;10218;42.874;25.320;2023-12-14T13:55:42;13.37;;;8.60;;
20114;SDS011;10218;42.874;25.320;2023-12-14T13:58:09;12.37;;;8.13;;
20114;SDS011;10218;42.874;25.320;2023-12-14T14:00:36;12.93;;;8.27;;
20114;SDS011;10218;42.874;25.320;2023-12-14T14:03:04;12.17;;;8.20;;
20114;SDS011;10218;42.874;25.320;2023-12-14T14:05:32;17.90;;;10.63;;
20114;SDS011;10218;42.874;25.320;2023-12-14T14:07:59;22.10;;;13.13;;
20114;SDS011;10218;42.874;25.320;2023-12-14T14:10:27;22.93;;;14.40;;
20114;SDS011;10218;42.874;25.320;2023-12-14T14:12:54;89.43;;;51.90;;
20114;SDS011;10218;42.874;25.320;2023-12-14T14:15:21;64.97;;;36.80;;
20114;SDS011;10218;42.874;25.320;2023-12-14T14:17:49;68.80;;;39.57;;
20114;SDS011;10218;42.874;25.320;2023-12-14T14:20:18;36.93;;;20.80;;
20114;SDS011;10218;42.874;25.320;2023-12-14T14:22:46;30.57;;;19.40;;
20114;SDS011;10218;42.874;25.320;2023-12-14T14:25:13;28.30;;;16.67;;
20114;SDS011;10218;42.874;25.320;2023-12-14T14:27:40;32.13;;;16.77;;
20114;SDS011;10218;42.874;25.320;2023-12-14T14:30:07;30.63;;;17.00;;
20114;SDS011;10218;42.874;25.320;2023-12-14T14:32:35;51.80;;;32.23;;
20114;SDS011;10218;42.874;25.320;2023-12-14T14:35:04;46.47;;;24.20;;
20114;SDS011;10218;42.874;25.320;2023-12-14T14:37:31;40.83;;;22.30;;
20114;SDS011;10218;42.874;25.320;2023-12-14T14:39:59;34.80;;;20.97;;
20114;SDS011;10218;42.874;25.320;2023-12-14T14:42:26;38.27;;;21.73;;